| time (UTC) | temp C | wind direction | speed KPH | gust KPH | rain 1hr cm | rain 24hr cm | rain mn cm | humidity % | barometer mb |
| 20260906200046 | 32 | 138 | 9.7 | 25.7 | 0.00 | 0.00 | 0.00 | 50 | 1009.5 |
| 20260906194536 | 31 | 96 | 6.4 | 20.9 | 0.00 | 0.00 | 0.00 | 58 | 1009.7 |
| 20260906193044 | 30 | 165 | 8.0 | 25.7 | 0.00 | 0.00 | 0.00 | 60 | 1010.1 |
| 20260906191537 | 29 | 150 | 8.0 | 25.7 | 0.00 | 0.00 | 0.00 | 64 | 1010.3 |
| 20260906190029 | 28 | 116 | 11.3 | 25.7 | 0.00 | 0.00 | 0.00 | 66 | 1010.6 |
| 20260906184522 | 27 | 119 | 8.0 | 22.5 | 0.00 | 0.00 | 0.00 | 72 | 1010.9 |
| 20260906183021 | 26 | 94 | 8.0 | 22.5 | 0.00 | 0.00 | 0.00 | 72 | 1011.3 |
| 20260906181537 | 26 | 3 | 6.4 | 22.5 | 0.00 | 0.00 | 0.00 | 74 | 1011.4 |
| 20260906180021 | 26 | 107 | 8.0 | 20.9 | 0.00 | 0.00 | 0.00 | 76 | 1011.9 |
| 20260906174511 | 25 | 118 | 6.4 | 12.9 | 0.00 | 0.00 | 0.00 | 81 | 1012.1 |
| 20260906173011 | 23 | 103 | 3.2 | 11.3 | 0.00 | 0.00 | 0.00 | 84 | 1012.5 |
| 20260906171511 | 23 | 144 | 3.2 | 11.3 | 0.00 | 0.00 | 0.00 | 87 | 1012.6 |
| 20260906170011 | 22 | 136 | 4.8 | 20.9 | 0.00 | 0.00 | 0.00 | 89 | 1012.6 |
| 20260906164508 | 22 | 133 | 4.8 | 12.9 | 0.00 | 0.00 | 0.00 | 91 | 1012.7 |
| 20260906163008 | 22 | 104 | 6.4 | 11.3 | 0.00 | 0.00 | 0.00 | 91 | 1012.5 |
| 20260906161508 | 21 | 129 | 1.6 | 9.7 | 0.00 | 0.00 | 0.00 | 92 | 1012.4 |
| 20260906160006 | 21 | 150 | 6.4 | 17.7 | 0.00 | 0.00 | 0.00 | 92 | 1012.3 |
| 20260906154517 | 21 | 139 | 6.4 | 12.9 | 0.00 | 0.00 | 0.00 | 91 | 1012.3 |
| 20260906153012 | 21 | 113 | 1.6 | 8.0 | 0.00 | 0.00 | 0.00 | 93 | 1012.4 |
| 20260906151605 | -17 | 0.0 | 0.0 | 0.00 | 0.00 | 0.00 | 1012.7 | ||
| 20260906150055 | -17 | 0.0 | 0.0 | 0.00 | 0.00 | 0.00 | 1013.3 | ||
| 20260906144607 | -17 | 0.0 | 0.0 | 0.00 | 0.00 | 0.00 | 1013.2 | ||
| 20260906143049 | -17 | 0.0 | 0.0 | 0.00 | 0.00 | 0.00 | 1013.8 | ||
| 20260906141542 | -17 | 0.0 | 0.0 | 0.00 | 0.00 | 0.00 | 1013.5 | ||
| 20260906140037 | -17 | 0.0 | 0.0 | 0.00 | 0.00 | 0.00 | 1013.9 | ||
| 20260906134535 | -17 | 0.0 | 0.0 | 0.00 | 0.00 | 0.00 | 1013.3 | ||
| 20260906133028 | -17 | 0.0 | 0.0 | 0.00 | 0.00 | 0.00 | 1013.5 | ||
| 20260906131524 | -17 | 0.0 | 0.0 | 0.00 | 0.00 | 0.00 | 1013.2 | ||
| 20260906130019 | -17 | 0.0 | 0.0 | 0.00 | 0.00 | 0.00 | 1013.5 | ||
| 20260906124514 | -17 | 0.0 | 0.0 | 0.00 | 0.00 | 0.00 | 1012.7 | ||
| 20260906123011 | -17 | 0.0 | 0.0 | 0.00 | 0.00 | 0.00 | 1012.3 | ||
| 20260906121506 | -17 | 0.0 | 0.0 | 0.00 | 0.00 | 0.00 | 1011.9 | ||
| 20260906120001 | -17 | 0.0 | 0.0 | 0.00 | 0.00 | 0.00 | 1011.5 | ||
| 20260906114600 | -17 | 0.0 | 0.0 | 0.00 | 0.00 | 0.00 | 1011.0 | ||
| 20260906113053 | -17 | 0.0 | 0.0 | 0.00 | 0.00 | 0.00 | 1011.0 | ||
| 20260906111549 | -17 | 58 | 0.0 | 4.8 | 0.00 | 0.00 | 0.00 | 1010.4 | |
| 20260906110045 | 23 | 356 | 0.0 | 0.0 | 0.00 | 0.00 | 0.00 | 74 | 1010.5 |
| 20260906104548 | 23 | 143 | 0.0 | 0.0 | 0.00 | 0.00 | 0.00 | 72 | 1010.4 |
| 20260906103040 | 24 | 150 | 0.0 | 4.8 | 0.00 | 0.00 | 0.00 | 71 | 1010.0 |
| 20260906101540 | 24 | 139 | 0.0 | 0.0 | 0.00 | 0.00 | 0.00 | 71 | 1010.0 |
| 20260906100039 | 24 | 177 | 0.0 | 9.7 | 0.00 | 0.00 | 0.00 | 70 | 1009.7 |
| 20260906094557 | 25 | 152 | 0.0 | 9.7 | 0.00 | 0.00 | 0.00 | 69 | 1009.7 |
| 20260906093053 | 24 | 212 | 0.0 | 3.2 | 0.00 | 0.00 | 0.00 | 69 | 1009.7 |
| 20260906091536 | 24 | 167 | 0.0 | 6.4 | 0.00 | 0.00 | 0.00 | 69 | 1009.6 |
| 20260906090035 | 24 | 220 | 0.0 | 6.4 | 0.00 | 0.00 | 0.00 | 68 | 1009.3 |
| 20260906084534 | 25 | 224 | 0.0 | 3.2 | 0.00 | 0.00 | 0.00 | 67 | 1009.3 |
| 20260906083044 | 24 | 200 | 0.0 | 0.0 | 0.00 | 0.00 | 0.00 | 68 | 1009.3 |
| 20260906081537 | 24 | 212 | 0.0 | 1.6 | 0.00 | 0.00 | 0.00 | 69 | 1009.7 |
| 20260906080039 | 24 | 202 | 0.0 | 3.2 | 0.00 | 0.00 | 0.00 | 69 | 1009.9 |
| 20260906074533 | 24 | 225 | 0.0 | 0.0 | 0.00 | 0.00 | 0.00 | 69 | 1010.0 |
| 20260906073029 | 25 | 223 | 0.0 | 3.2 | 0.00 | 0.00 | 0.00 | 68 | 1010.1 |
| 20260906071529 | 25 | 163 | 0.0 | 3.2 | 0.00 | 0.00 | 0.00 | 67 | 1010.0 |
| 20260906070027 | 25 | 161 | 0.0 | 0.0 | 0.00 | 0.00 | 0.00 | 66 | 1010.1 |
| 20260906064525 | 25 | 158 | 0.0 | 11.3 | 0.00 | 0.00 | 0.00 | 66 | 1010.0 |
| 20260906063024 | 25 | 151 | 0.0 | 6.4 | 0.00 | 0.00 | 0.00 | 67 | 1009.9 |
| 20260906061526 | 25 | 156 | 0.0 | 1.6 | 0.00 | 0.00 | 0.00 | 68 | 1009.9 |
| 20260906060017 | 24 | 169 | 0.0 | 8.0 | 0.00 | 0.00 | 0.00 | 69 | 1009.8 |
| 20260906054513 | 24 | 172 | 0.0 | 0.0 | 0.00 | 0.00 | 0.00 | 69 | 1009.6 |
| 20260906053010 | 24 | 165 | 0.0 | 6.4 | 0.00 | 0.00 | 0.00 | 70 | 1009.4 |
| 20260906051508 | 24 | 91 | 0.0 | 3.2 | 0.00 | 0.00 | 0.00 | 71 | 1009.4 |
| 20260906050007 | 24 | 146 | 0.0 | 3.2 | 0.00 | 0.00 | 0.00 | 71 | 1009.3 |
| 20260906044505 | 24 | 158 | 0.0 | 8.0 | 0.00 | 0.00 | 0.00 | 71 | 1009.2 |
| 20260906043004 | 25 | 100 | 0.0 | 8.0 | 0.00 | 0.00 | 0.00 | 70 | 1009.2 |
| 20260906041505 | 25 | 151 | 0.0 | 1.6 | 0.00 | 0.00 | 0.00 | 70 | 1009.3 |
| 20260906040008 | 25 | 129 | 0.0 | 1.6 | 0.00 | 0.00 | 0.00 | 70 | 1009.6 |
| 20260906034506 | 25 | 107 | 0.0 | 3.2 | 0.00 | 0.00 | 0.00 | 69 | 1009.6 |
| 20260906033003 | 25 | 127 | 0.0 | 4.8 | 0.00 | 0.00 | 0.00 | 68 | 1009.5 |
| 20260906031502 | 25 | 120 | 0.0 | 1.6 | 0.00 | 0.00 | 0.00 | 67 | 1009.1 |
| 20260906030003 | 26 | 92 | 1.6 | 8.0 | 0.00 | 0.00 | 0.00 | 66 | 1009.0 |
| 20260906024502 | 26 | 142 | 0.0 | 1.6 | 0.00 | 0.00 | 0.00 | 66 | 1008.8 |
| 20260906023100 | 26 | 148 | 0.0 | 11.3 | 0.00 | 0.00 | 0.00 | 65 | 1008.7 |
| 20260906021601 | 26 | 153 | 0.0 | 8.0 | 0.00 | 0.00 | 0.00 | 64 | 1008.6 |
| 20260906020059 | 26 | 147 | 0.0 | 4.8 | 0.00 | 0.00 | 0.00 | 64 | 1008.4 |
| 20260906014643 | 27 | 139 | 0.0 | 8.0 | 0.00 | 0.00 | 0.00 | 62 | 1008.2 |
| 20260906013102 | 27 | 169 | 0.0 | 8.0 | 0.00 | 0.00 | 0.00 | 61 | 1007.9 |
| 20260906011604 | 27 | 134 | 1.6 | 11.3 | 0.00 | 0.00 | 0.00 | 59 | 1007.7 |
| 20260906010056 | 28 | 142 | 1.6 | 12.9 | 0.00 | 0.00 | 0.00 | 57 | 1007.8 |
| 20260906004610 | 28 | 115 | 6.4 | 17.7 | 0.00 | 0.00 | 0.00 | 56 | 1007.6 |
| 20260906003110 | 29 | 112 | 8.0 | 17.7 | 0.00 | 0.00 | 0.00 | 56 | 1007.8 |
| 20260906001554 | 30 | 122 | 9.7 | 25.7 | 0.00 | 0.00 | 0.00 | 55 | 1007.9 |
| 20260906000053 | 30 | 137 | 8.0 | 25.7 | 0.00 | 0.00 | 0.00 | 54 | 1007.7 |
| 20260905234558 | 31 | 100 | 9.7 | 24.1 | 0.00 | 0.00 | 0.00 | 51 | 1007.7 |
| 20260905233052 | 31 | 142 | 3.2 | 20.9 | 0.00 | 0.00 | 0.00 | 51 | 1007.6 |
| 20260905231551 | 32 | 131 | 4.8 | 20.9 | 0.00 | 0.00 | 0.00 | 48 | 1007.3 |
| 20260905230050 | 32 | 147 | 9.7 | 25.7 | 0.00 | 0.00 | 0.00 | 47 | 1007.1 |
| 20260905224550 | 32 | 136 | 9.7 | 25.7 | 0.00 | 0.00 | 0.00 | 49 | 1007.1 |
| 20260905223049 | 32 | 107 | 8.0 | 20.9 | 0.00 | 0.00 | 0.00 | 49 | 1006.9 |
| 20260905221608 | 35 | 94 | 12.9 | 30.6 | 0.00 | 0.00 | 0.00 | 42 | 1006.8 |
| 20260905220047 | 36 | 184 | 8.0 | 11.3 | 0.00 | 0.00 | 0.00 | 35 | 1006.5 |
| 20260905214544 | 36 | 214 | 0.0 | 9.7 | 0.00 | 0.00 | 0.00 | 36 | 1006.4 |
| 20260905213056 | 36 | 228 | 0.0 | 3.2 | 0.00 | 0.00 | 0.00 | 36 | 1006.6 |
| 20260905211544 | 36 | 233 | 6.4 | 20.9 | 0.00 | 0.00 | 0.00 | 35 | 1006.9 |
| 20260905210049 | 36 | 180 | 0.0 | 1.6 | 0.00 | 0.00 | 0.00 | 37 | 1007.1 |
| 20260905204543 | 36 | 176 | 3.2 | 11.3 | 0.00 | 0.00 | 0.00 | 38 | 1007.1 |
| 20260905203036 | 36 | 152 | 0.0 | 1.6 | 0.00 | 0.00 | 0.00 | 39 | 1007.5 |
| 20260905201532 | 36 | 174 | 3.2 | 11.3 | 0.00 | 0.00 | 0.00 | 41 | 1007.8 |